createdAt,value
2023-05-06T00:24:37.273Z,6
2023-05-06T00:53:23.997Z,5
2023-05-06T01:22:10.749Z,7
2023-05-06T01:51:02.506Z,8
2023-05-06T02:19:46.268Z,9
2023-05-06T02:48:38.291Z,9
2023-05-06T03:17:27.749Z,7
2023-05-06T03:46:16.527Z,10
2023-05-06T04:14:57.312Z,7
2023-05-06T04:43:43.748Z,11
2023-05-06T05:12:29.341Z,8
2023-05-06T05:41:26.237Z,9
2023-05-06T06:10:17.322Z,8
2023-05-06T06:38:53.105Z,10
2023-05-06T07:08:10.622Z,10
2023-05-06T07:36:40.519Z,10
2023-05-06T08:05:10.412Z,13
2023-05-06T08:33:48.378Z,11
2023-05-06T09:02:36.083Z,9
2023-05-06T09:31:06.243Z,6
2023-05-06T09:59:51.223Z,6
2023-05-06T10:28:41.475Z,4
2023-05-06T10:57:12.547Z,4
2023-05-06T11:25:53.946Z,3
2023-05-06T11:54:28.335Z,4
2023-05-06T12:23:09.531Z,4
2023-05-06T12:51:57.052Z,6
2023-05-06T13:20:40.527Z,4
2023-05-06T13:49:35.369Z,3
2023-05-06T14:18:26.654Z,3
2023-05-06T14:46:51.589Z,6
2023-05-06T15:15:18.656Z,3
2023-05-06T15:43:59.993Z,4
2023-05-06T16:12:49.256Z,3
2023-05-06T16:41:24.316Z,6
2023-05-06T17:09:57.755Z,4
2023-05-06T17:38:41.315Z,4
2023-05-06T18:07:18.076Z,4
2023-05-06T18:35:48.726Z,7
2023-05-06T19:04:25.823Z,6
2023-05-06T19:33:05.003Z,10
2023-05-06T20:01:42.741Z,7
2023-05-06T20:30:21.318Z,9
2023-05-06T20:58:27.876Z,7
2023-05-06T21:27:00.737Z,7
2023-05-06T21:55:43.023Z,13
2023-05-06T22:24:29.142Z,11
2023-05-06T22:53:16.019Z,12
2023-05-06T23:21:46.302Z,10
2023-05-06T23:50:16.599Z,9
